createdAt,value
2023-04-09T00:02:39.011Z,7.11
2023-04-09T00:05:27.204Z,7.29
2023-04-09T00:08:13.989Z,7.28
2023-04-09T00:11:00.941Z,7.37
2023-04-09T00:13:47.343Z,7.31
2023-04-09T00:16:34.361Z,7.45
2023-04-09T00:19:21.436Z,7.36
2023-04-09T00:22:09.249Z,7.46
2023-04-09T00:24:56.030Z,7.68
2023-04-09T00:27:42.843Z,7.75
2023-04-09T00:30:30.026Z,7.76
2023-04-09T00:33:16.564Z,7.71
2023-04-09T00:36:03.479Z,7.76
2023-04-09T00:38:54.218Z,7.86
2023-04-09T00:41:41.277Z,8.11
2023-04-09T00:44:28.052Z,8.16
2023-04-09T00:47:14.885Z,8.11
2023-04-09T00:50:02.383Z,7.90
2023-04-09T00:52:49.078Z,8.38
2023-04-09T00:55:37.776Z,8.21
2023-04-09T00:58:24.538Z,8.30
2023-04-09T01:01:11.509Z,8.28
2023-04-09T01:03:58.921Z,8.24
2023-04-09T01:06:52.027Z,8.27
2023-04-09T01:09:43.566Z,8.36
2023-04-09T01:12:37.878Z,8.09
2023-04-09T01:15:28.554Z,8.35
2023-04-09T01:18:24.196Z,8.47
2023-04-09T01:21:14.709Z,8.46
2023-04-09T01:24:12.059Z,8.46
2023-04-09T01:27:07.578Z,8.45
2023-04-09T01:30:17.366Z,8.47
2023-04-09T01:33:05.301Z,8.51
2023-04-09T01:35:53.477Z,8.60
2023-04-09T01:38:43.228Z,8.60
2023-04-09T01:41:33.875Z,8.67
2023-04-09T01:44:21.855Z,8.76
2023-04-09T01:47:11.112Z,8.76
2023-04-09T01:49:57.705Z,8.33
2023-04-09T01:52:44.647Z,8.89
2023-04-09T01:55:31.251Z,8.78
2023-04-09T01:58:18.035Z,8.75
2023-04-09T02:01:12.015Z,8.92
2023-04-09T02:04:04.318Z,8.70
2023-04-09T02:06:59.692Z,8.83
2023-04-09T02:09:48.969Z,8.71
2023-04-09T02:12:38.392Z,8.89
2023-04-09T02:15:25.915Z,8.80
2023-04-09T02:18:23.304Z,8.72
2023-04-09T02:21:13.811Z,8.85
2023-04-09T02:24:00.547Z,8.96
2023-04-09T02:26:47.687Z,9.00
2023-04-09T02:29:34.921Z,8.81
2023-04-09T02:32:21.767Z,8.57
2023-04-09T02:35:09.113Z,8.61
2023-04-09T02:37:57.440Z,8.35
2023-04-09T02:40:44.473Z,8.52
2023-04-09T02:43:31.285Z,8.77
2023-04-09T02:46:18.013Z,8.71
2023-04-09T02:49:04.658Z,8.87
2023-04-09T02:51:51.338Z,8.60
2023-04-09T02:54:39.727Z,8.70
2023-04-09T02:57:26.233Z,8.64
2023-04-09T03:00:14.032Z,8.67
2023-04-09T03:03:01.097Z,8.75
2023-04-09T03:05:47.822Z,8.82
2023-04-09T03:08:34.633Z,8.82
2023-04-09T03:11:22.884Z,8.88
2023-04-09T03:14:09.675Z,8.83
2023-04-09T03:16:56.864Z,8.99
2023-04-09T03:19:43.638Z,9.17
2023-04-09T03:22:30.974Z,9.25
2023-04-09T03:25:19.656Z,8.90
2023-04-09T03:28:09.408Z,8.85
2023-04-09T03:31:01.305Z,8.72
2023-04-09T03:33:49.008Z,8.99
2023-04-09T03:36:35.921Z,8.94
2023-04-09T03:39:24.004Z,8.94
2023-04-09T03:42:11.077Z,8.88
2023-04-09T03:45:08.321Z,8.72
2023-04-09T03:48:00.809Z,8.72
2023-04-09T03:50:47.533Z,8.55
2023-04-09T03:53:38.909Z,8.42
2023-04-09T03:56:26.695Z,8.58
2023-04-09T03:59:13.619Z,8.51
2023-04-09T04:02:05.496Z,8.65
2023-04-09T04:04:55.235Z,8.51
2023-04-09T04:07:45.105Z,8.73
2023-04-09T04:10:37.332Z,8.64
2023-04-09T04:13:24.260Z,8.46
2023-04-09T04:16:15.592Z,8.56
2023-04-09T04:19:03.554Z,8.65
2023-04-09T04:21:52.952Z,8.50
2023-04-09T04:24:40.107Z,8.63
2023-04-09T04:27:27.338Z,8.87
2023-04-09T04:30:14.189Z,8.34
2023-04-09T04:33:33.532Z,8.68
2023-04-09T04:36:21.775Z,8.62
2023-04-09T04:39:11.591Z,8.57
2023-04-09T04:42:20.406Z,8.68
2023-04-09T04:45:09.764Z,8.63
2023-04-09T04:48:02.664Z,8.60
2023-04-09T04:50:58.096Z,8.52
2023-04-09T04:53:49.602Z,8.88
2023-04-09T04:56:36.402Z,9.00
2023-04-09T04:59:43.305Z,8.98
2023-04-09T05:02:32.455Z,9.01
2023-04-09T05:05:46.097Z,8.96
2023-04-09T05:08:33.369Z,8.75
2023-04-09T05:11:22.162Z,8.85
2023-04-09T05:14:09.125Z,8.73
2023-04-09T05:16:55.990Z,8.70
2023-04-09T05:19:53.758Z,8.52
2023-04-09T05:22:47.614Z,8.68
2023-04-09T05:25:35.742Z,8.79
2023-04-09T05:28:25.124Z,8.68
2023-04-09T05:31:22.605Z,8.71
2023-04-09T05:34:36.320Z,8.79
2023-04-09T05:37:24.473Z,8.74
2023-04-09T05:40:14.920Z,8.76
2023-04-09T05:43:02.345Z,8.59
2023-04-09T05:45:59.376Z,8.43
2023-04-09T05:48:46.219Z,8.71
2023-04-09T05:51:33.034Z,8.59
2023-04-09T05:54:23.866Z,8.43
2023-04-09T05:57:11.575Z,8.53
2023-04-09T06:00:02.399Z,8.61
2023-04-09T06:02:50.875Z,8.58
2023-04-09T06:05:37.706Z,8.61
2023-04-09T06:08:24.534Z,8.55
2023-04-09T06:11:12.000Z,8.65
2023-04-09T06:13:58.651Z,8.57
2023-04-09T06:16:45.604Z,8.64
2023-04-09T06:19:34.507Z,8.86
2023-04-09T06:22:21.390Z,9.18
2023-04-09T06:25:08.775Z,9.08
2023-04-09T06:27:55.786Z,8.90
2023-04-09T06:30:42.274Z,9.21
2023-04-09T06:33:29.363Z,9.27
2023-04-09T06:36:17.464Z,9.20
2023-04-09T06:39:04.102Z,9.09
2023-04-09T06:41:50.693Z,9.16
2023-04-09T06:44:46.012Z,8.97
2023-04-09T06:47:32.845Z,8.91
2023-04-09T06:50:19.736Z,8.80
2023-04-09T06:53:08.334Z,8.65
2023-04-09T06:55:56.705Z,8.77
2023-04-09T06:58:43.685Z,8.82
2023-04-09T07:01:30.618Z,8.76
2023-04-09T07:04:17.550Z,8.77
2023-04-09T07:07:04.194Z,8.86
2023-04-09T07:09:54.369Z,8.84
2023-04-09T07:12:41.519Z,8.92
2023-04-09T07:15:28.242Z,9.20
2023-04-09T07:18:14.612Z,9.36
2023-04-09T07:21:04.386Z,9.50
2023-04-09T07:23:51.239Z,9.57
2023-04-09T07:26:39.486Z,9.57
2023-04-09T07:29:26.258Z,9.70
2023-04-09T07:32:13.104Z,9.67
2023-04-09T07:35:00.662Z,9.64
2023-04-09T07:37:47.298Z,9.65
2023-04-09T07:40:36.829Z,9.12
2023-04-09T07:43:24.843Z,9.66
2023-04-09T07:46:11.967Z,9.42
2023-04-09T07:48:58.653Z,9.77
2023-04-09T07:51:45.601Z,9.90
2023-04-09T07:54:32.597Z,9.88
2023-04-09T07:57:19.330Z,9.78
2023-04-09T08:00:08.822Z,9.84
2023-04-09T08:03:04.168Z,9.63
2023-04-09T08:05:51.112Z,9.97
2023-04-09T08:08:38.216Z,9.96
2023-04-09T08:11:26.067Z,9.77
2023-04-09T08:14:13.069Z,9.80
2023-04-09T08:17:01.605Z,10.03
2023-04-09T08:19:49.596Z,10.00
2023-04-09T08:22:36.884Z,9.89
2023-04-09T08:25:23.812Z,9.90
2023-04-09T08:28:10.788Z,10.23
2023-04-09T08:30:57.366Z,9.96
2023-04-09T08:33:45.370Z,10.05
2023-04-09T08:36:34.831Z,10.12
2023-04-09T08:39:21.847Z,9.97
2023-04-09T08:42:10.414Z,10.09
2023-04-09T08:44:57.050Z,10.21
2023-04-09T08:47:46.592Z,10.16
2023-04-09T08:50:34.865Z,10.34
2023-04-09T08:53:23.358Z,10.39
2023-04-09T08:56:09.812Z,10.24
2023-04-09T08:58:57.714Z,10.13
2023-04-09T09:01:44.697Z,10.32
2023-04-09T09:04:45.224Z,10.35
2023-04-09T09:07:34.292Z,10.56
2023-04-09T09:10:20.926Z,10.26
2023-04-09T09:13:23.103Z,10.40
2023-04-09T09:16:14.508Z,10.55
2023-04-09T09:19:01.856Z,10.50
2023-04-09T09:21:56.865Z,10.18
2023-04-09T09:24:50.333Z,10.26
2023-04-09T09:27:40.543Z,10.33
2023-04-09T09:30:28.780Z,10.32
2023-04-09T09:33:15.728Z,10.64
2023-04-09T09:36:03.982Z,10.83
2023-04-09T09:38:55.841Z,10.57
2023-04-09T09:41:44.635Z,10.91
2023-04-09T09:44:34.593Z,10.84
2023-04-09T09:47:22.545Z,10.87
2023-04-09T09:50:10.346Z,10.79
2023-04-09T09:53:03.526Z,10.92
2023-04-09T09:55:53.198Z,11.02
2023-04-09T09:58:46.394Z,11.05
2023-04-09T10:01:34.428Z,11.30
2023-04-09T10:04:22.484Z,11.23
2023-04-09T10:07:09.814Z,11.42
2023-04-09T10:09:58.098Z,11.50
2023-04-09T10:12:46.439Z,11.43
2023-04-09T10:15:34.793Z,11.77
2023-04-09T10:18:21.643Z,11.73
2023-04-09T10:21:16.345Z,11.64
2023-04-09T10:24:06.365Z,11.22
2023-04-09T10:26:56.629Z,11.30
2023-04-09T10:29:50.537Z,11.48
2023-04-09T10:32:40.072Z,11.53
2023-04-09T10:35:27.269Z,11.72
2023-04-09T10:38:15.999Z,11.47
2023-04-09T10:41:08.935Z,11.46
2023-04-09T10:43:55.446Z,12.02
2023-04-09T10:46:43.160Z,12.12
2023-04-09T10:49:38.012Z,12.22
2023-04-09T10:52:31.467Z,12.09
2023-04-09T10:55:38.054Z,12.32
2023-04-09T10:58:24.872Z,12.53
2023-04-09T11:01:24.492Z,12.74
2023-04-09T11:04:26.390Z,12.51
2023-04-09T11:07:22.688Z,12.79
2023-04-09T11:10:10.813Z,13.02
2023-04-09T11:12:57.737Z,12.96
2023-04-09T11:15:46.034Z,12.57
2023-04-09T11:18:34.627Z,12.71
2023-04-09T11:21:21.335Z,12.65
2023-04-09T11:24:09.464Z,12.73
2023-04-09T11:26:56.857Z,12.80
2023-04-09T11:29:43.625Z,12.98
2023-04-09T11:32:32.482Z,12.86
2023-04-09T11:35:21.561Z,13.02
2023-04-09T11:38:08.973Z,13.14
2023-04-09T11:40:59.086Z,13.64
2023-04-09T11:43:46.204Z,13.69
2023-04-09T11:46:34.007Z,13.62
2023-04-09T11:49:21.361Z,13.46
2023-04-09T11:52:08.195Z,13.70
2023-04-09T11:54:54.903Z,13.57
2023-04-09T11:57:44.826Z,13.23
2023-04-09T12:00:33.811Z,13.48
2023-04-09T12:03:28.468Z,13.71
2023-04-09T12:06:15.051Z,13.57
2023-04-09T12:09:02.871Z,13.88
2023-04-09T12:11:49.426Z,13.71
2023-04-09T12:14:37.614Z,13.75
2023-04-09T12:17:24.472Z,14.19
2023-04-09T12:20:12.057Z,13.77
2023-04-09T12:23:03.587Z,13.67
2023-04-09T12:25:50.796Z,13.99
2023-04-09T12:28:37.554Z,13.90
2023-04-09T12:31:25.973Z,14.00
2023-04-09T12:34:13.419Z,14.43
2023-04-09T12:37:00.570Z,14.28
2023-04-09T12:39:48.003Z,13.57
2023-04-09T12:42:34.594Z,13.97
2023-04-09T12:45:22.325Z,13.92
2023-04-09T12:48:10.844Z,14.14
2023-04-09T12:50:57.388Z,13.92
2023-04-09T12:53:44.087Z,14.16
2023-04-09T12:56:32.064Z,14.21
2023-04-09T12:59:18.649Z,14.23
2023-04-09T13:02:05.695Z,14.10
2023-04-09T13:04:54.015Z,14.26
2023-04-09T13:07:42.877Z,14.22
2023-04-09T13:10:30.542Z,14.54
2023-04-09T13:13:17.315Z,14.53
2023-04-09T13:16:04.269Z,14.54
2023-04-09T13:18:52.124Z,14.67
2023-04-09T13:21:42.393Z,14.78
2023-04-09T13:24:32.031Z,14.62
2023-04-09T13:27:21.212Z,14.20
2023-04-09T13:30:11.983Z,14.19
2023-04-09T13:32:58.714Z,14.53
2023-04-09T13:35:45.416Z,14.79
2023-04-09T13:38:33.731Z,14.84
2023-04-09T13:41:20.707Z,14.73
2023-04-09T13:44:07.575Z,14.94
2023-04-09T13:46:55.715Z,14.98
2023-04-09T13:49:46.053Z,15.12
2023-04-09T13:52:34.106Z,15.07
2023-04-09T13:55:22.054Z,15.11
2023-04-09T13:58:08.620Z,15.12
2023-04-09T14:00:55.689Z,14.89
2023-04-09T14:03:43.312Z,15.13
2023-04-09T14:06:29.778Z,15.15
2023-04-09T14:09:16.656Z,15.34
2023-04-09T14:12:04.876Z,15.53
2023-04-09T14:14:51.725Z,15.46
2023-04-09T14:17:38.601Z,15.47
2023-04-09T14:20:25.696Z,15.39
2023-04-09T14:23:12.538Z,15.35
2023-04-09T14:25:59.492Z,15.38
2023-04-09T14:28:47.893Z,15.13
2023-04-09T14:31:37.297Z,15.20
2023-04-09T14:34:24.825Z,15.54
2023-04-09T14:37:12.439Z,15.50
2023-04-09T14:39:59.197Z,15.67
2023-04-09T14:42:46.883Z,15.80
2023-04-09T14:45:34.898Z,15.88
2023-04-09T14:48:21.697Z,15.89
2023-04-09T14:51:10.909Z,15.95
2023-04-09T14:53:58.018Z,15.81
2023-04-09T14:56:44.779Z,15.97
2023-04-09T14:59:31.583Z,16.05
2023-04-09T15:02:20.065Z,15.89
2023-04-09T15:05:07.764Z,16.03
2023-04-09T15:07:55.570Z,16.13
2023-04-09T15:10:42.048Z,16.09
2023-04-09T15:13:28.826Z,16.10
2023-04-09T15:16:22.434Z,16.05
2023-04-09T15:19:10.218Z,16.11
2023-04-09T15:21:57.489Z,16.09
2023-04-09T15:24:43.874Z,16.05
2023-04-09T15:27:30.714Z,15.99
2023-04-09T15:30:17.533Z,16.12
2023-04-09T15:33:05.855Z,16.21
2023-04-09T15:35:53.841Z,16.32
2023-04-09T15:38:40.954Z,16.29
2023-04-09T15:41:27.587Z,16.01
2023-04-09T15:44:14.272Z,16.18
2023-04-09T15:47:01.268Z,16.06
2023-04-09T15:49:48.218Z,16.12
2023-04-09T15:52:36.546Z,16.23
2023-04-09T15:55:25.344Z,16.50
2023-04-09T15:58:11.920Z,16.43
2023-04-09T16:00:58.874Z,16.55
2023-04-09T16:03:50.756Z,16.57
2023-04-09T16:06:38.922Z,16.33
2023-04-09T16:09:27.147Z,16.38
2023-04-09T16:12:13.754Z,16.46
2023-04-09T16:15:00.470Z,16.43
2023-04-09T16:17:47.179Z,16.38
2023-04-09T16:20:34.002Z,16.29
2023-04-09T16:23:21.154Z,16.38
2023-04-09T16:26:09.368Z,16.28
2023-04-09T16:28:56.271Z,16.26
2023-04-09T16:31:43.211Z,16.06
2023-04-09T16:34:31.559Z,15.68
2023-04-09T16:37:18.385Z,15.44
2023-04-09T16:40:05.567Z,15.51
2023-04-09T16:42:53.483Z,15.37
2023-04-09T16:45:40.170Z,15.30
2023-04-09T16:48:26.985Z,15.14
2023-04-09T16:51:13.777Z,15.20
2023-04-09T16:54:00.657Z,15.25
2023-04-09T16:56:48.532Z,15.13
2023-04-09T16:59:36.778Z,15.01
2023-04-09T17:02:24.773Z,14.85
2023-04-09T17:05:11.796Z,14.91
2023-04-09T17:07:58.691Z,14.73
2023-04-09T17:10:46.013Z,14.35
2023-04-09T17:13:35.238Z,14.59
2023-04-09T17:16:23.274Z,14.41
2023-04-09T17:19:10.062Z,14.39
2023-04-09T17:21:57.070Z,14.13
2023-04-09T17:24:43.946Z,13.91
2023-04-09T17:27:31.399Z,13.85
2023-04-09T17:30:17.911Z,13.84
2023-04-09T17:33:06.152Z,13.61
2023-04-09T17:35:53.023Z,13.40
2023-04-09T17:38:40.024Z,13.27
2023-04-09T17:41:27.781Z,13.28
2023-04-09T17:44:14.590Z,13.14
2023-04-09T17:47:01.465Z,13.00
2023-04-09T17:49:49.704Z,12.84
2023-04-09T17:52:37.699Z,12.82
2023-04-09T17:55:24.464Z,12.65
2023-04-09T17:58:11.182Z,12.62
2023-04-09T18:00:58.809Z,12.27
2023-04-09T18:03:46.294Z,12.22
2023-04-09T18:06:34.407Z,12.08
2023-04-09T18:09:21.092Z,12.06
2023-04-09T18:12:07.851Z,11.89
2023-04-09T18:14:54.644Z,11.80
2023-04-09T18:17:41.553Z,11.74
2023-04-09T18:20:28.180Z,11.57
2023-04-09T18:23:16.481Z,11.47
2023-04-09T18:26:03.589Z,11.30
2023-04-09T18:28:50.607Z,11.12
2023-04-09T18:31:37.492Z,11.13
2023-04-09T18:34:24.853Z,11.17
2023-04-09T18:37:11.334Z,10.92
2023-04-09T18:40:01.253Z,10.75
2023-04-09T18:42:52.961Z,10.69
2023-04-09T18:45:40.901Z,10.57
2023-04-09T18:48:27.738Z,10.57
2023-04-09T18:51:18.884Z,10.79
2023-04-09T18:54:07.091Z,10.63
2023-04-09T18:56:55.233Z,10.58
2023-04-09T18:59:42.239Z,10.41
2023-04-09T19:02:28.910Z,10.37
2023-04-09T19:05:15.486Z,10.28
2023-04-09T19:08:04.402Z,10.25
2023-04-09T19:10:51.266Z,10.07
2023-04-09T19:13:40.004Z,10.05
2023-04-09T19:16:26.513Z,9.98
2023-04-09T19:19:13.226Z,9.87
2023-04-09T19:22:00.466Z,9.83
2023-04-09T19:24:47.076Z,9.72
2023-04-09T19:27:33.992Z,9.64
2023-04-09T19:30:22.095Z,9.58
2023-04-09T19:33:08.629Z,9.52
2023-04-09T19:35:56.744Z,9.47
2023-04-09T19:38:43.120Z,9.39
2023-04-09T19:41:29.821Z,9.42
2023-04-09T19:44:16.591Z,9.30
2023-04-09T19:47:04.946Z,9.25
2023-04-09T19:49:51.737Z,9.19
2023-04-09T19:52:38.861Z,9.16
2023-04-09T19:55:26.054Z,9.08
2023-04-09T19:58:12.854Z,9.16
2023-04-09T20:00:59.876Z,9.34
2023-04-09T20:03:48.951Z,9.18
2023-04-09T20:06:36.769Z,9.10
2023-04-09T20:09:23.934Z,8.98
2023-04-09T20:12:10.684Z,8.81
2023-04-09T20:14:57.369Z,8.78
2023-04-09T20:17:43.817Z,8.71
2023-04-09T20:20:32.551Z,8.69
2023-04-09T20:23:22.508Z,8.67
2023-04-09T20:26:11.962Z,8.64
2023-04-09T20:28:58.980Z,8.78
2023-04-09T20:31:45.731Z,8.70
2023-04-09T20:34:32.710Z,8.39
2023-04-09T20:37:21.664Z,8.24
2023-04-09T20:40:09.519Z,8.16
2023-04-09T20:42:56.485Z,8.12
2023-04-09T20:45:42.981Z,8.13
2023-04-09T20:48:31.606Z,8.11
2023-04-09T20:51:18.047Z,8.20
2023-04-09T20:54:05.969Z,8.07
2023-04-09T20:56:52.648Z,8.22
2023-04-09T20:59:39.481Z,8.18
2023-04-09T21:02:26.498Z,8.01
2023-04-09T21:05:22.541Z,7.84
2023-04-09T21:08:14.693Z,7.76
2023-04-09T21:11:02.550Z,7.87
2023-04-09T21:13:54.596Z,7.92
2023-04-09T21:16:42.002Z,7.89
2023-04-09T21:19:28.847Z,7.67
2023-04-09T21:22:15.664Z,7.51
2023-04-09T21:25:03.275Z,7.58
2023-04-09T21:27:51.847Z,7.52
2023-04-09T21:30:39.189Z,7.45
2023-04-09T21:33:27.528Z,7.41
2023-04-09T21:36:16.060Z,7.39
2023-04-09T21:39:03.459Z,7.22
2023-04-09T21:41:50.666Z,7.10
2023-04-09T21:44:39.028Z,6.97
2023-04-09T21:47:26.625Z,7.01
2023-04-09T21:50:13.552Z,7.00
2023-04-09T21:53:00.198Z,7.16
2023-04-09T21:55:47.216Z,6.96
2023-04-09T21:58:33.892Z,7.02
2023-04-09T22:01:29.131Z,6.84
2023-04-09T22:04:16.287Z,6.78
2023-04-09T22:07:03.478Z,6.75
2023-04-09T22:09:51.095Z,6.76
2023-04-09T22:12:37.610Z,6.82
2023-04-09T22:15:24.302Z,6.75
2023-04-09T22:18:12.418Z,6.72
2023-04-09T22:20:59.363Z,6.65
2023-04-09T22:23:46.256Z,6.57
2023-04-09T22:26:32.936Z,6.58
2023-04-09T22:29:19.481Z,6.57
2023-04-09T22:32:06.979Z,6.58
2023-04-09T22:34:55.228Z,6.62
2023-04-09T22:37:42.316Z,6.63
2023-04-09T22:40:28.834Z,6.62
2023-04-09T22:43:15.798Z,6.49
2023-04-09T22:46:02.707Z,6.37
2023-04-09T22:48:51.638Z,6.49
2023-04-09T22:51:41.562Z,6.55
2023-04-09T22:54:30.100Z,6.37
2023-04-09T22:57:16.874Z,6.27
2023-04-09T23:00:05.211Z,6.33
2023-04-09T23:02:52.093Z,6.25
2023-04-09T23:05:38.827Z,6.08
2023-04-09T23:08:26.869Z,6.22
2023-04-09T23:11:13.672Z,6.05
2023-04-09T23:14:00.512Z,6.02
2023-04-09T23:16:47.140Z,6.05
2023-04-09T23:19:34.007Z,5.98
2023-04-09T23:22:20.613Z,6.08
2023-04-09T23:25:09.477Z,6.02
2023-04-09T23:27:56.505Z,5.96
2023-04-09T23:30:43.354Z,5.86
2023-04-09T23:33:30.079Z,5.74
2023-04-09T23:36:16.883Z,5.73
2023-04-09T23:39:03.802Z,5.65
2023-04-09T23:41:51.947Z,5.63
2023-04-09T23:44:38.716Z,5.66
2023-04-09T23:47:25.567Z,5.67
2023-04-09T23:50:12.392Z,5.70
2023-04-09T23:53:01.027Z,5.69
2023-04-09T23:55:49.899Z,5.64
2023-04-09T23:58:37.761Z,5.58
